Time;durP1;ratioP1;P1;durP2;ratioP2;P2;SDS_P1;SDS_P2;PMS_P1;PMS_P2;Temp;Humidity;BMP_temperature;BMP_pressure;BME280_temperature;BME280_humidity;BME280_pressure;Samples;Min_cycle;Max_cycle;Signal;HPM_P1;HPM_P2
2023/07/27 00:01:00;;;;;;;;;;;;;;;24.87;39.64;100494.89;2394793;74;50364;-75
2023/07/27 00:04:02;;;;;;;;;;;;;;;24.86;39.64;100495.92;2334636;74;49523;-75
2023/07/27 00:07:04;;;;;;;;;;;;;;;24.87;39.64;100491.37;2361077;74;50902;-74
2023/07/27 00:10:05;;;;;;;;;;;;;;;24.86;39.63;100495.92;2395026;74;50299;-75
2023/07/27 00:13:07;;;;;;;;;;;;;;;24.85;39.62;100497.00;2361140;74;50216;-75
2023/07/27 00:16:08;;;;;;;;;;;;;;;24.87;39.63;100494.89;2394691;74;50223;-75
2023/07/27 00:19:10;;;;;;;;;;;;;;;24.85;39.66;100492.94;2395825;74;50298;-74
2023/07/27 00:22:12;;;;;;;;;;;;;;;24.84;39.67;100498.06;2361214;74;50663;-75
2023/07/27 00:25:13;;;;;;;;;;;;;;;24.84;39.64;100495.36;2361248;74;51507;-74
2023/07/27 00:28:15;;;;;;;;;;;;;;;24.86;39.65;100494.58;2388539;74;50147;-75
2023/07/27 00:31:16;;;;;;;;;;;;;;;24.84;39.64;100491.30;2361193;74;51428;-75
2023/07/27 00:34:18;;;;;;;;;;;;;;;24.84;39.68;100483.68;2361072;74;51518;-75
2023/07/27 00:37:20;;;;;;;;;;;;;;;24.84;39.66;100483.18;2360886;74;50597;-74
2023/07/27 00:40:21;;;;;;;;;;;;;;;24.84;39.65;100480.97;2334902;74;49686;-74
2023/07/27 00:43:23;;;;;;;;;;;;;;;24.84;39.64;100485.03;2361393;74;50690;-75
2023/07/27 00:46:25;;;;;;;;;;;;;;;24.84;39.65;100485.03;2394679;74;50438;-75
2023/07/27 00:49:26;;;;;;;;;;;;;;;24.83;39.65;100484.21;2395660;74;50742;-75
2023/07/27 00:52:28;;;;;;;;;;;;;;;24.82;39.65;100483.92;2393826;74;50773;-75
2023/07/27 00:55:29;;;;;;;;;;;;;;;24.83;39.65;100490.16;2396869;74;50291;-74
2023/07/27 00:58:31;;;;;;;;;;;;;;;24.82;39.67;100487.98;2363644;74;50690;-75
2023/07/27 01:01:33;;;;;;;;;;;;;;;24.83;39.65;100484.75;2397121;73;51581;-74
2023/07/27 01:04:34;;;;;;;;;;;;;;;24.81;39.65;100482.26;2363442;74;51181;-74
2023/07/27 01:07:36;;;;;;;;;;;;;;;24.80;39.67;100481.97;2396911;73;50605;-74
2023/07/27 01:10:48;;;;;;;;;;;;;;;24.80;39.68;100479.27;2397289;74;51537;-75
2023/07/27 01:14:06;;;;;;;;;;;;;;;24.81;39.67;100475.49;2396948;73;50803;-75
2023/07/27 01:17:10;;;;;;;;;;;;;;;24.81;39.66;100468.73;2353858;74;52739;-74
2023/07/27 01:20:22;;;;;;;;;;;;;;;24.78;39.68;100469.19;2395532;74;50807;-75
2023/07/27 01:23:28;;;;;;;;;;;;;;;24.80;39.66;100463.03;2394883;74;51474;-75
2023/07/27 01:26:37;;;;;;;;;;;;;;;24.78;39.68;100461.07;2394537;74;50438;-75
2023/07/27 01:29:41;;;;;;;;;;;;;;;24.80;39.65;100462.20;2361040;74;50868;-75
2023/07/27 01:32:42;;;;;;;;;;;;;;;24.75;39.71;100465.59;2352901;74;51439;-74
2023/07/27 01:35:45;;;;;;;;;;;;;;;24.75;39.69;100463.70;2394874;74;51501;-75
2023/07/27 01:38:47;;;;;;;;;;;;;;;24.75;39.70;100469.12;2390713;74;51655;-74
2023/07/27 01:41:49;;;;;;;;;;;;;;;24.75;39.71;100470.47;2389003;74;51593;-74
2023/07/27 01:44:51;;;;;;;;;;;;;;;24.73;39.71;100460.40;2394910;74;50756;-75
2023/07/27 01:47:53;;;;;;;;;;;;;;;24.74;39.72;100458.02;2385698;74;50445;-75
2023/07/27 01:50:55;;;;;;;;;;;;;;;24.74;39.72;100453.13;2395582;73;50293;-75
2023/07/27 01:53:56;;;;;;;;;;;;;;;24.73;39.73;100456.88;2388928;74;52714;-75
2023/07/27 01:56:58;;;;;;;;;;;;;;;24.74;39.72;100462.06;2394585;74;51268;-74
2023/07/27 01:59:59;;;;;;;;;;;;;;;24.72;39.73;100452.00;2394921;74;49960;-74
2023/07/27 02:03:01;;;;;;;;;;;;;;;24.74;39.71;100451.78;2394847;74;51523;-74
2023/07/27 02:06:03;;;;;;;;;;;;;;;24.73;39.69;100447.41;2388731;73;52519;-74
2023/07/27 02:09:04;;;;;;;;;;;;;;;24.73;39.70;100448.75;2361153;74;51551;-74
2023/07/27 02:12:07;;;;;;;;;;;;;;;24.73;39.71;100444.70;2394921;74;51558;-74
2023/07/27 02:15:11;;;;;;;;;;;;;;;24.73;39.71;100440.10;2393939;74;51710;-75
2023/07/27 02:18:14;;;;;;;;;;;;;;;24.71;39.71;100440.03;2359762;74;51738;-75
2023/07/27 02:21:15;;;;;;;;;;;;;;;24.72;39.75;100448.47;2397237;73;51635;-75
2023/07/27 02:24:17;;;;;;;;;;;;;;;24.72;39.74;100437.65;2397313;73;51530;-75
2023/07/27 02:27:18;;;;;;;;;;;;;;;24.71;39.74;100438.69;2397013;73;51941;-75
2023/07/27 02:30:20;;;;;;;;;;;;;;;24.70;39.75;100447.33;2391166;73;51158;-75
2023/07/27 02:33:22;;;;;;;;;;;;;;;24.71;39.73;100448.16;2391435;73;51531;-75
2023/07/27 02:36:23;;;;;;;;;;;;;;;24.70;39.73;100448.69;2397078;73;51535;-76
2023/07/27 02:39:25;;;;;;;;;;;;;;;24.70;39.76;100454.09;2391356;73;51574;-75
2023/07/27 02:42:26;;;;;;;;;;;;;;;24.69;39.77;100450.28;2363714;74;52442;-75
2023/07/27 02:45:28;;;;;;;;;;;;;;;24.68;39.77;100447.27;2397338;73;50463;-75
2023/07/27 02:48:30;;;;;;;;;;;;;;;24.68;39.76;100439.14;2379637;74;50283;-75
2023/07/27 02:51:31;;;;;;;;;;;;;;;24.69;39.76;100442.17;2363180;74;49429;-76
2023/07/27 02:54:33;;;;;;;;;;;;;;;24.68;39.76;100443.20;2397178;73;51551;-75
2023/07/27 02:57:35;;;;;;;;;;;;;;;24.68;39.76;100437.80;2396860;73;51459;-75
2023/07/27 03:00:37;;;;;;;;;;;;;;;24.66;39.76;100444.80;2391241;73;50346;-76
2023/07/27 03:03:39;;;;;;;;;;;;;;;24.66;39.78;100448.86;2397196;74;50814;-75
2023/07/27 03:06:41;;;;;;;;;;;;;;;24.68;39.76;100443.20;2391135;73;50667;-74
2023/07/27 03:09:42;;;;;;;;;;;;;;;24.67;39.76;100442.92;2391471;73;50330;-75
2023/07/27 03:12:44;;;;;;;;;;;;;;;24.67;39.74;100438.33;2397231;73;50265;-75
2023/07/27 03:15:45;;;;;;;;;;;;;;;24.66;39.77;100446.66;2391438;74;51015;-75
2023/07/27 03:18:47;;;;;;;;;;;;;;;24.66;39.77;100448.02;2378876;73;52355;-75
2023/07/27 03:21:49;;;;;;;;;;;;;;;24.66;39.77;100452.07;2388954;73;50145;-75
2023/07/27 03:24:50;;;;;;;;;;;;;;;24.65;39.76;100463.42;2361225;74;50402;-75
2023/07/27 03:27:52;;;;;;;;;;;;;;;24.66;39.76;100450.72;2361094;74;50675;-74
2023/07/27 03:30:53;;;;;;;;;;;;;;;24.65;39.78;100448.55;2334330;74;51724;-75
2023/07/27 03:33:55;;;;;;;;;;;;;;;24.64;39.77;100448.26;2394814;74;51336;-75
2023/07/27 03:36:57;;;;;;;;;;;;;;;24.65;39.75;100441.78;2394590;74;51510;-75
2023/07/27 03:39:58;;;;;;;;;;;;;;;24.64;39.77;100445.55;2394987;74;51521;-76
2023/07/27 03:43:00;;;;;;;;;;;;;;;24.64;39.73;100440.67;2389115;74;51154;-76
2023/07/27 03:46:01;;;;;;;;;;;;;;;24.65;39.75;100445.02;2394819;74;51569;-75
2023/07/27 03:49:03;;;;;;;;;;;;;;;24.65;39.76;100445.02;2395939;74;51466;-75
2023/07/27 03:52:05;;;;;;;;;;;;;;;24.65;39.75;100437.72;2394965;74;50290;-75
2023/07/27 03:55:06;;;;;;;;;;;;;;;24.63;39.77;100441.71;2361413;74;51491;-75
2023/07/27 03:58:08;;;;;;;;;;;;;;;24.63;39.78;100439.83;2394767;74;50645;-75
2023/07/27 04:01:09;;;;;;;;;;;;;;;24.63;39.75;100432.24;2361998;74;51542;-74
2023/07/27 04:04:11;;;;;;;;;;;;;;;24.63;39.75;100426.83;2395612;74;51424;-75
2023/07/27 04:07:13;;;;;;;;;;;;;;;24.64;39.76;100419.03;2388903;74;50154;-75
2023/07/27 04:10:15;;;;;;;;;;;;;;;24.62;39.77;100421.95;2395146;74;51493;-75
2023/07/27 04:13:16;;;;;;;;;;;;;;;24.63;39.72;100421.42;2395337;74;51603;-75
2023/07/27 04:16:18;;;;;;;;;;;;;;;24.63;39.74;100425.48;2394648;74;51459;-75
2023/07/27 04:19:19;;;;;;;;;;;;;;;24.62;39.75;100422.48;2319361;74;52371;-75
2023/07/27 04:22:21;;;;;;;;;;;;;;;24.63;39.77;100422.77;2394731;74;50345;-75
2023/07/27 04:25:22;;;;;;;;;;;;;;;24.63;39.73;100417.36;2394757;73;50343;-75
2023/07/27 04:28:24;;;;;;;;;;;;;;;24.62;39.77;100422.48;2361079;74;50356;-76
2023/07/27 04:31:26;;;;;;;;;;;;;;;24.62;39.77;100414.38;2334485;74;51731;-75
2023/07/27 04:34:27;;;;;;;;;;;;;;;24.61;39.78;100414.91;2394613;74;51562;-75
2023/07/27 04:37:29;;;;;;;;;;;;;;;24.61;39.78;100416.77;2360914;74;51471;-75
2023/07/27 04:40:30;;;;;;;;;;;;;;;24.62;39.79;100413.02;2394800;73;51630;-75
2023/07/27 04:43:32;;;;;;;;;;;;;;;24.62;39.78;100417.08;2394799;74;51452;-75
2023/07/27 04:46:33;;;;;;;;;;;;;;;24.63;39.75;100416.02;2394869;74;50056;-75
2023/07/27 04:49:35;;;;;;;;;;;;;;;24.62;39.75;100416.55;2362728;74;49749;-76
2023/07/27 04:52:37;;;;;;;;;;;;;;;24.62;39.78;100419.78;2363620;74;50848;-75
2023/07/27 04:55:38;;;;;;;;;;;;;;;24.63;39.74;100414.66;2397297;73;50650;-76
2023/07/27 04:58:40;;;;;;;;;;;;;;;24.64;39.76;100414.97;2397070;73;51431;-76
2023/07/27 05:01:41;;;;;;;;;;;;;;;24.63;39.77;100416.83;2363752;74;51458;-76
2023/07/27 05:04:43;;;;;;;;;;;;;;;24.64;39.82;100409.56;2397227;73;51452;-75
2023/07/27 05:07:45;;;;;;;;;;;;;;;24.62;39.86;100403.55;2391057;73;51193;-76
2023/07/27 05:10:47;;;;;;;;;;;;;;;24.65;39.87;100409.85;2397308;73;51484;-76
2023/07/27 05:13:50;;;;;;;;;;;;;;;24.71;39.84;100412.48;2397312;74;51462;-75
2023/07/27 05:16:52;;;;;;;;;;;;;;;24.85;39.67;100402.81;2355783;74;50351;-76
2023/07/27 05:19:54;;;;;;;;;;;;;;;24.92;39.56;100412.48;2392487;73;50387;-75
2023/07/27 05:22:56;;;;;;;;;;;;;;;24.96;39.54;100410.94;2361763;74;51574;-75
2023/07/27 05:25:58;;;;;;;;;;;;;;;25.03;39.43;100410.86;2361314;74;51578;-76
2023/07/27 05:28:59;;;;;;;;;;;;;;;25.02;39.49;100411.08;2388634;74;52349;-75
2023/07/27 05:32:01;;;;;;;;;;;;;;;25.06;39.49;100415.80;2334741;74;52651;-75
2023/07/27 05:35:03;;;;;;;;;;;;;;;25.08;39.52;100408.81;2361372;74;51499;-76
2023/07/27 05:38:04;;;;;;;;;;;;;;;25.09;39.57;100410.45;2394545;74;50385;-75
2023/07/27 05:41:06;;;;;;;;;;;;;;;25.15;39.53;100408.16;2394904;74;50669;-75
2023/07/27 05:44:08;;;;;;;;;;;;;;;25.17;39.56;100407.43;2334739;74;52499;-75
2023/07/27 05:47:09;;;;;;;;;;;;;;;25.25;39.47;100405.73;2383152;74;50009;-75
2023/07/27 05:50:11;;;;;;;;;;;;;;;25.29;39.45;100399.34;2362321;74;50157;-75
2023/07/27 05:53:13;;;;;;;;;;;;;;;25.28;39.44;100398.52;2361381;74;51573;-74
2023/07/27 05:56:14;;;;;;;;;;;;;;;25.33;39.36;100400.50;2388720;74;52370;-75
2023/07/27 05:59:16;;;;;;;;;;;;;;;25.36;39.35;100398.17;2361170;74;51633;-75
2023/07/27 06:02:18;;;;;;;;;;;;;;;25.41;39.28;100392.05;2361162;74;51477;-75
2023/07/27 06:05:19;;;;;;;;;;;;;;;25.46;39.22;100398.09;2361149;74;53798;-75
2023/07/27 06:08:21;;;;;;;;;;;;;;;25.44;39.24;100389.41;2334513;74;51286;-75
2023/07/27 06:11:23;;;;;;;;;;;;;;;25.40;39.23;100391.20;2361323;74;50697;-75
2023/07/27 06:14:25;;;;;;;;;;;;;;;25.41;39.17;100387.45;2394814;74;50326;-75
2023/07/27 06:17:31;;;;;;;;;;;;;;;25.38;39.21;100387.93;2395035;73;51546;-75
2023/07/27 06:20:30;;;;;;;;;;;;;;;25.38;39.18;100385.22;2396064;74;22284;-75
2023/07/27 06:23:31;;;;;;;;;;;;;;;25.34;39.24;100385.38;2361325;74;50674;-75
2023/07/27 06:26:33;;;;;;;;;;;;;;;25.37;39.17;100383.55;2361079;74;51470;-74
2023/07/27 06:29:34;;;;;;;;;;;;;;;25.37;39.17;100383.55;2394951;74;50393;-75
2023/07/27 06:32:36;;;;;;;;;;;;;;;25.38;39.17;100388.44;2334789;74;51690;-75
2023/07/27 06:35:38;;;;;;;;;;;;;;;25.39;39.20;100384.15;2394916;74;50452;-75
2023/07/27 06:38:39;;;;;;;;;;;;;;;25.37;39.28;100385.44;2394623;74;50715;-75
2023/07/27 06:41:41;;;;;;;;;;;;;;;25.39;39.19;100388.75;2391064;73;50343;-75
2023/07/27 06:44:42;;;;;;;;;;;;;;;25.41;39.24;100387.99;2328744;73;51269;-75
2023/07/27 06:47:44;;;;;;;;;;;;;;;25.44;39.20;100381.28;2397087;73;50641;-75
2023/07/27 06:50:46;;;;;;;;;;;;;;;25.46;39.19;100387.26;2397311;74;51608;-75
2023/07/27 06:53:47;;;;;;;;;;;;;;;25.49;39.14;100387.63;2391399;74;50617;-75
2023/07/27 06:56:49;;;;;;;;;;;;;;;25.49;39.18;100378.69;2397174;73;51441;-75
2023/07/27 06:59:50;;;;;;;;;;;;;;;25.48;39.18;100371.60;2397297;74;51417;-75
2023/07/27 07:02:52;;;;;;;;;;;;;;;25.44;39.20;100378.57;2391304;73;51454;-75
2023/07/27 07:05:54;;;;;;;;;;;;;;;25.44;39.14;100388.87;2391236;73;51435;-75
2023/07/27 07:08:57;;;;;;;;;;;;;;;25.45;39.08;100386.44;2390934;73;51770;-75
2023/07/27 07:11:59;;;;;;;;;;;;;;;25.49;39.08;100383.57;2389667;73;51577;-75
2023/07/27 07:15:00;;;;;;;;;;;;;;;25.48;39.08;100379.19;2391552;74;51595;-75
2023/07/27 07:18:02;;;;;;;;;;;;;;;25.50;39.05;100370.84;2391070;73;50698;-75
2023/07/27 07:21:04;;;;;;;;;;;;;;;25.52;39.05;100368.19;2363545;74;49900;-75
2023/07/27 07:24:05;;;;;;;;;;;;;;;25.52;39.06;100367.38;2391396;73;50315;-75
2023/07/27 07:27:07;;;;;;;;;;;;;;;25.51;39.05;100371.12;2391187;73;50702;-76
2023/07/27 07:30:09;;;;;;;;;;;;;;;25.56;38.90;100364.47;2397345;74;50316;-76
2023/07/27 07:33:10;;;;;;;;;;;;;;;25.58;38.89;100374.55;2363430;74;52391;-76
2023/07/27 07:36:12;;;;;;;;;;;;;;;25.59;38.91;100359.95;2397040;73;51691;-76
2023/07/27 07:39:14;;;;;;;;;;;;;;;25.64;38.81;100361.42;2397204;73;51392;-75
2023/07/27 07:42:16;;;;;;;;;;;;;;;25.64;38.83;100360.07;2379875;73;51517;-76
2023/07/27 07:45:18;;;;;;;;;;;;;;;25.64;38.79;100354.11;2360851;74;49608;-76
2023/07/27 07:48:19;;;;;;;;;;;;;;;25.60;38.83;100354.28;2394600;73;50434;-75
2023/07/27 07:51:21;;;;;;;;;;;;;;;25.61;38.77;100348.33;2394856;74;50283;-75
2023/07/27 07:54:23;;;;;;;;;;;;;;;25.57;38.79;100349.88;2361316;74;50281;-75
2023/07/27 07:57:25;;;;;;;;;;;;;;;25.47;38.94;100351.00;2388601;74;50236;-75
2023/07/27 08:00:26;;;;;;;;;;;;;;;25.44;38.94;100352.84;2361629;74;50328;-75
2023/07/27 08:03:28;;;;;;;;;;;;;;;25.37;39.04;100352.41;2394770;74;51498;-75
2023/07/27 08:06:29;;;;;;;;;;;;;;;25.35;39.05;100357.77;2361056;74;50317;-75
2023/07/27 08:09:31;;;;;;;;;;;;;;;25.33;39.07;100351.75;2394771;74;50160;-75
2023/07/27 08:12:33;;;;;;;;;;;;;;;25.34;39.05;100348.00;2361048;74;50221;-75
2023/07/27 08:15:34;;;;;;;;;;;;;;;25.35;38.99;100354.52;2389529;74;50346;-75
2023/07/27 08:18:36;;;;;;;;;;;;;;;25.33;38.98;100349.05;2361020;74;50551;-74
2023/07/27 08:21:38;;;;;;;;;;;;;;;25.32;39.01;100346.05;2394810;74;50536;-75
2023/07/27 08:24:39;;;;;;;;;;;;;;;25.29;39.05;100346.53;2394755;74;50670;-74
2023/07/27 08:27:41;;;;;;;;;;;;;;;25.25;39.13;100355.63;2361054;74;51571;-75
2023/07/27 08:30:43;;;;;;;;;;;;;;;25.25;39.13;100351.57;2394707;74;50895;-75
2023/07/27 08:33:44;;;;;;;;;;;;;;;25.22;39.15;100343.92;2394827;74;50442;-74
2023/07/27 08:36:50;;;;;;;;;;;;;;;25.21;39.18;100343.64;2361196;74;50413;-75
2023/07/27 08:39:49;;;;;;;;;;;;;;;25.20;39.22;100327.08;2395002;74;22307;-75
2023/07/27 08:42:51;;;;;;;;;;;;;;;25.18;39.24;100318.39;2360955;74;50696;-74
2023/07/27 08:45:53;;;;;;;;;;;;;;;25.22;39.21;100318.73;2389269;73;51207;-75
2023/07/27 08:48:54;;;;;;;;;;;;;;;25.23;39.18;100314.45;2394763;74;50746;-75
2023/07/27 08:51:56;;;;;;;;;;;;;;;25.24;39.16;100310.67;2395040;74;51415;-75
2023/07/27 08:54:58;;;;;;;;;;;;;;;25.23;39.17;100311.74;2394858;73;51454;-75
2023/07/27 08:58:00;;;;;;;;;;;;;;;25.23;39.19;100313.09;2394456;74;50713;-75
2023/07/27 09:01:01;;;;;;;;;;;;;;;25.23;39.19;100304.97;2388857;73;51363;-74
2023/07/27 09:04:03;;;;;;;;;;;;;;;25.22;39.18;100299.78;2394690;74;50196;-74
2023/07/27 09:07:08;;;;;;;;;;;;;;;25.21;39.19;100289.48;2394553;74;50634;-76
2023/07/27 09:10:09;;;;;;;;;;;;;;;25.21;39.19;100285.42;2394797;74;51425;-74
2023/07/27 09:13:12;;;;;;;;;;;;;;;25.19;39.19;100284.30;2360313;74;51642;-74
2023/07/27 09:16:13;;;;;;;;;;;;;;;25.18;39.20;100279.95;2388838;74;51408;-75
2023/07/27 09:19:16;;;;;;;;;;;;;;;25.17;39.24;100280.17;2395531;73;51438;-75
2023/07/27 09:22:18;;;;;;;;;;;;;;;25.15;39.24;100280.39;2395039;74;50442;-74
2023/07/27 09:25:22;;;;;;;;;;;;;;;25.14;39.27;100281.44;2388776;74;51176;-74
2023/07/27 09:28:24;;;;;;;;;;;;;;;25.14;39.27;100272.50;2360998;74;50380;-74
2023/07/27 09:31:27;;;;;;;;;;;;;;;25.12;39.30;100267.84;2394707;74;50286;-75
2023/07/27 09:34:30;;;;;;;;;;;;;;;25.13;39.28;100262.20;2361243;74;51446;-74
2023/07/27 09:37:32;;;;;;;;;;;;;;;25.12;39.30;100258.36;2394487;74;51585;-76
2023/07/27 09:40:33;;;;;;;;;;;;;;;25.09;39.33;100259.66;2394998;73;51502;-75
2023/07/27 09:43:38;;;;;;;;;;;;;;;25.08;39.35;100250.44;2361548;74;51619;-75
2023/07/27 09:46:41;;;;;;;;;;;;;;;25.09;39.35;100256.95;2394736;74;50700;-75
2023/07/27 09:49:42;;;;;;;;;;;;;;;25.09;39.36;100251.54;2389667;73;49535;-75
2023/07/27 09:52:44;;;;;;;;;;;;;;;25.08;39.36;100262.09;2394933;74;51510;-74
2023/07/27 09:55:46;;;;;;;;;;;;;;;25.07;39.37;100246.88;2394896;74;51615;-75
2023/07/27 09:58:47;;;;;;;;;;;;;;;25.06;39.38;100241.19;2394720;74;51335;-76
2023/07/27 10:01:50;;;;;;;;;;;;;;;25.08;39.36;100239.08;2389257;74;52375;-75
2023/07/27 10:04:52;;;;;;;;;;;;;;;25.07;39.36;100242.83;2361539;74;50701;-75
2023/07/27 10:07:53;;;;;;;;;;;;;;;25.08;39.36;100240.97;2394760;74;51588;-75
2023/07/27 10:10:55;;;;;;;;;;;;;;;25.08;39.36;100235.02;2394825;74;51461;-75
2023/07/27 10:13:57;;;;;;;;;;;;;;;25.08;39.38;100232.84;2389130;74;51315;-75
2023/07/27 10:17:09;;;;;;;;;;;;;;;25.07;39.39;100240.11;2361188;74;51641;-75
2023/07/27 10:20:21;;;;;;;;;;;;;;;25.08;39.38;100223.37;2395726;74;51639;-76
2023/07/27 10:23:26;;;;;;;;;;;;;;;25.07;39.39;100222.52;2393733;74;50807;-75
2023/07/27 10:26:46;;;;;;;;;;;;;;;25.08;39.42;100222.02;2334430;74;51316;-75
2023/07/27 10:29:54;;;;;;;;;;;;;;;25.08;39.42;100219.31;2394872;74;50697;-75
2023/07/27 10:33:16;;;;;;;;;;;;;;;25.08;39.39;100216.06;2394865;74;50225;-76
2023/07/27 10:36:11;;;;;;;;;;;;;;;25.07;39.44;100213.05;2360017;74;22735;-75
2023/07/27 10:39:16;;;;;;;;;;;;;;;25.08;39.43;100216.59;2388950;74;52438;-76
2023/07/27 10:42:22;;;;;;;;;;;;;;;25.08;39.43;100211.19;2361493;74;51511;-75
2023/07/27 10:45:26;;;;;;;;;;;;;;;25.08;39.43;100205.77;2394922;73;50424;-75
2023/07/27 10:48:28;;;;;;;;;;;;;;;25.10;39.41;100209.04;2393307;73;50341;-75
2023/07/27 10:51:29;;;;;;;;;;;;;;;25.05;39.48;100211.13;2389204;74;49611;-75
2023/07/27 10:54:31;;;;;;;;;;;;;;;25.06;39.48;100202.47;2394915;73;50322;-75
2023/07/27 10:57:32;;;;;;;;;;;;;;;25.08;39.46;100208.48;2394708;74;50661;-75
2023/07/27 11:00:38;;;;;;;;;;;;;;;25.06;39.46;100208.70;2361492;74;50171;-75
2023/07/27 11:03:39;;;;;;;;;;;;;;;25.05;39.51;100214.34;2394857;74;51619;-75
2023/07/27 11:06:42;;;;;;;;;;;;;;;25.03;39.54;100207.02;2394745;74;50320;-75
2023/07/27 11:09:48;;;;;;;;;;;;;;;25.03;39.53;100208.37;2394865;74;50219;-75
2023/07/27 11:12:52;;;;;;;;;;;;;;;25.01;39.56;100209.13;2395289;74;22334;-75
2023/07/27 11:15:54;;;;;;;;;;;;;;;25.03;39.53;100215.12;2360740;74;51753;-75
2023/07/27 11:18:57;;;;;;;;;;;;;;;25.00;39.55;100209.66;2392956;74;50694;-75
2023/07/27 11:21:59;;;;;;;;;;;;;;;25.01;39.55;100201.00;2394953;73;51641;-75
2023/07/27 11:25:00;;;;;;;;;;;;;;;24.99;39.57;100195.81;2394976;74;50744;-74
2023/07/27 11:28:02;;;;;;;;;;;;;;;24.98;39.56;100196.35;2394708;74;50027;-74
2023/07/27 11:31:07;;;;;;;;;;;;;;;24.96;39.60;100199.82;2394851;73;50146;-75
2023/07/27 11:34:09;;;;;;;;;;;;;;;24.96;39.59;100194.94;2394711;74;50335;-75
2023/07/27 11:37:10;;;;;;;;;;;;;;;24.98;39.60;100191.47;2394646;74;51572;-78
2023/07/27 11:40:19;;;;;;;;;;;;;;;24.96;39.62;100190.34;2361411;74;50163;-75
2023/07/27 11:43:20;;;;;;;;;;;;;;;24.95;39.63;100186.54;2361500;74;52259;-75
2023/07/27 11:46:22;;;;;;;;;;;;;;;24.95;39.67;100171.12;2394594;74;51406;-75
2023/07/27 11:49:24;;;;;;;;;;;;;;;24.95;39.65;100168.41;2395692;73;50030;-75
2023/07/27 11:52:26;;;;;;;;;;;;;;;24.95;39.64;100165.70;2389014;74;51203;-75
2023/07/27 11:55:29;;;;;;;;;;;;;;;24.96;39.65;100157.05;2361493;74;50669;-75
2023/07/27 11:58:30;;;;;;;;;;;;;;;24.96;39.65;100158.41;2394350;73;50712;-76
2023/07/27 12:01:35;;;;;;;;;;;;;;;24.96;39.63;100155.16;2361362;74;50415;-75
2023/07/27 12:04:37;;;;;;;;;;;;;;;24.95;39.68;100153.52;2361298;74;51615;-76
2023/07/27 12:07:38;;;;;;;;;;;;;;;24.95;39.67;100149.47;2394582;74;50351;-75
2023/07/27 12:10:41;;;;;;;;;;;;;;;24.95;39.67;100145.94;2394840;74;51392;-75
2023/07/27 12:13:43;;;;;;;;;;;;;;;24.93;39.68;100146.17;2361453;74;50814;-74
2023/07/27 12:16:45;;;;;;;;;;;;;;;24.94;39.69;100139.68;2334431;74;51202;-75
2023/07/27 12:19:46;;;;;;;;;;;;;;;24.93;39.68;100139.40;2362217;74;51422;-74
2023/07/27 12:22:48;;;;;;;;;;;;;;;24.92;39.70;100143.18;2361340;74;50348;-75
2023/07/27 12:25:54;;;;;;;;;;;;;;;24.92;39.73;100136.92;2394842;74;50382;-74
2023/07/27 12:28:53;;;;;;;;;;;;;;;24.93;39.73;100137.23;2394080;74;22366;-74
2023/07/27 12:31:54;;;;;;;;;;;;;;;24.93;39.70;100125.05;2394919;74;50665;-74
2023/07/27 12:34:56;;;;;;;;;;;;;;;24.93;39.72;100133.98;2394721;74;51448;-75
2023/07/27 12:38:01;;;;;;;;;;;;;;;24.94;39.71;100128.86;2394654;74;51539;-75
2023/07/27 12:41:02;;;;;;;;;;;;;;;24.93;39.72;100124.52;2388801;74;52450;-74
2023/07/27 12:44:04;;;;;;;;;;;;;;;24.93;39.74;100123.70;2361297;74;50317;-74
2023/07/27 12:47:06;;;;;;;;;;;;;;;24.92;39.76;100112.05;2358924;74;51538;-75
2023/07/27 12:50:07;;;;;;;;;;;;;;;24.94;39.78;100109.09;2361908;74;50388;-75
2023/07/27 12:53:09;;;;;;;;;;;;;;;24.93;39.80;100100.69;2334525;74;52294;-75
2023/07/27 12:56:11;;;;;;;;;;;;;;;24.92;39.81;100096.32;2394602;74;51470;-75
2023/07/27 12:59:13;;;;;;;;;;;;;;;24.93;39.79;100093.39;2394844;74;51516;-75
2023/07/27 13:02:15;;;;;;;;;;;;;;;24.93;39.78;100089.87;2361242;74;51321;-75
2023/07/27 13:05:16;;;;;;;;;;;;;;;24.91;39.81;100088.74;2334466;74;52471;-75
2023/07/27 13:08:18;;;;;;;;;;;;;;;24.91;39.81;100087.39;2361069;74;50363;-76
2023/07/27 13:11:20;;;;;;;;;;;;;;;24.92;39.82;100093.62;2361322;74;50652;-75
2023/07/27 13:14:21;;;;;;;;;;;;;;;24.93;39.84;100090.69;2394941;74;50345;-75
2023/07/27 13:17:23;;;;;;;;;;;;;;;24.91;39.85;100084.69;2394907;73;50276;-76
2023/07/27 13:20:24;;;;;;;;;;;;;;;24.93;39.87;100090.69;2395620;73;50457;-76
2023/07/27 13:23:26;;;;;;;;;;;;;;;24.92;39.89;100086.34;2361664;74;50296;-75
2023/07/27 13:26:29;;;;;;;;;;;;;;;24.91;39.90;100096.86;2394794;74;50438;-75
2023/07/27 13:29:31;;;;;;;;;;;;;;;24.91;39.92;100092.80;2388974;74;52448;-75
2023/07/27 13:32:32;;;;;;;;;;;;;;;24.90;39.95;100085.75;2362032;74;50746;-75
2023/07/27 13:35:34;;;;;;;;;;;;;;;24.89;39.97;100092.24;2395068;73;50771;-74
2023/07/27 13:38:36;;;;;;;;;;;;;;;24.90;39.99;100091.70;2394782;74;51443;-74
2023/07/27 13:41:37;;;;;;;;;;;;;;;24.88;40.01;100083.81;2334930;74;52369;-75
2023/07/27 13:44:39;;;;;;;;;;;;;;;24.86;40.06;100069.69;2361416;74;51559;-76
2023/07/27 13:47:40;;;;;;;;;;;;;;;24.86;40.03;100062.92;2391364;74;49903;-74
2023/07/27 13:50:42;;;;;;;;;;;;;;;24.85;40.04;100064.00;2362246;74;50317;-73
2023/07/27 13:53:44;;;;;;;;;;;;;;;24.86;40.03;100058.05;2389237;74;51721;-74
2023/07/27 13:56:45;;;;;;;;;;;;;;;24.85;40.04;100051.82;2394785;74;51427;-75
2023/07/27 13:59:47;;;;;;;;;;;;;;;24.86;40.01;100055.34;2395075;74;50551;-74
2023/07/27 14:02:48;;;;;;;;;;;;;;;24.86;40.03;100043.98;2362459;74;50678;-74
2023/07/27 14:05:50;;;;;;;;;;;;;;;24.86;40.04;100043.98;2390116;74;50945;-75
2023/07/27 14:08:52;;;;;;;;;;;;;;;24.84;40.06;100048.84;2395501;74;51406;-74
2023/07/27 14:11:53;;;;;;;;;;;;;;;24.85;40.04;100045.59;2362096;74;50832;-74
2023/07/27 14:14:55;;;;;;;;;;;;;;;24.84;40.07;100046.12;2395626;74;50486;-75
2023/07/27 14:17:56;;;;;;;;;;;;;;;24.84;40.06;100043.93;2389665;73;52368;-76
2023/07/27 14:20:58;;;;;;;;;;;;;;;24.86;40.01;100044.52;2362882;74;51448;-76
2023/07/27 14:24:00;;;;;;;;;;;;;;;24.85;40.05;100036.13;2395857;74;51413;-75
2023/07/27 14:27:01;;;;;;;;;;;;;;;24.86;40.04;100029.64;2395360;74;51636;-75
2023/07/27 14:30:03;;;;;;;;;;;;;;;24.86;40.03;100029.09;2395622;74;50767;-75
2023/07/27 14:33:04;;;;;;;;;;;;;;;24.84;40.06;100029.89;2362265;74;51576;-76
2023/07/27 14:36:06;;;;;;;;;;;;;;;24.84;40.07;100030.40;2395598;74;51137;-75
2023/07/27 14:39:08;;;;;;;;;;;;;;;24.83;40.07;100034.18;2362029;74;50773;-76
2023/07/27 14:42:09;;;;;;;;;;;;;;;24.83;40.10;100043.65;2335533;74;50911;-76
2023/07/27 14:45:11;;;;;;;;;;;;;;;24.82;40.09;100025.25;2395666;74;50648;-76
2023/07/27 14:48:12;;;;;;;;;;;;;;;24.82;40.11;100023.89;2357183;74;50694;-76
2023/07/27 14:51:14;;;;;;;;;;;;;;;24.83;40.10;100019.30;2390611;73;50778;-76
2023/07/27 14:54:16;;;;;;;;;;;;;;;24.82;40.13;100010.36;2335557;74;51771;-76
2023/07/27 14:57:17;;;;;;;;;;;;;;;24.81;40.12;100000.58;2362015;74;50468;-76
2023/07/27 15:00:19;;;;;;;;;;;;;;;24.82;40.10;99995.48;2362349;74;50159;-74
2023/07/27 15:03:20;;;;;;;;;;;;;;;24.80;40.15;99986.78;2362421;74;50682;-76
2023/07/27 15:06:22;;;;;;;;;;;;;;;24.81;40.13;99987.05;2389539;74;52668;-75
2023/07/27 15:09:23;;;;;;;;;;;;;;;24.80;40.13;99978.66;2362330;74;50700;-75
2023/07/27 15:12:25;;;;;;;;;;;;;;;24.81;40.12;99968.11;2362644;74;50563;-76
2023/07/27 15:15:27;;;;;;;;;;;;;;;24.82;40.11;99957.59;2395601;74;50609;-76
2023/07/27 15:18:29;;;;;;;;;;;;;;;24.82;40.09;99961.66;2389900;74;50335;-76
2023/07/27 15:21:31;;;;;;;;;;;;;;;24.81;40.11;99954.58;2396223;74;51500;-76
2023/07/27 15:24:32;;;;;;;;;;;;;;;24.80;40.12;99957.02;2395479;74;50355;-76
2023/07/27 15:27:34;;;;;;;;;;;;;;;24.81;40.15;99947.00;2395097;74;51493;-76
2023/07/27 15:30:35;;;;;;;;;;;;;;;24.81;40.13;99943.76;2335400;74;52682;-76
2023/07/27 15:33:37;;;;;;;;;;;;;;;24.79;40.14;99945.91;2362416;74;51554;-75
2023/07/27 15:36:39;;;;;;;;;;;;;;;24.76;40.15;99938.25;2362183;74;51437;-76